Time;durP1;ratioP1;P1;durP2;ratioP2;P2;SDS_P1;SDS_P2;PMS_P1;PMS_P2;Temp;Humidity;BMP_temperature;BMP_pressure;BME280_temperature;BME280_humidity;BME280_pressure;Samples;Min_cycle;Max_cycle;Signal;HPM_P1;HPM_P2
2022/05/18 00:01:46;;;;;;;2.47;0.63;;;15.70;99.90;;;;;;5070745;28;20208;-81
2022/05/18 00:04:16;;;;;;;1.00;0.52;;;15.80;99.90;;;;;;5060954;28;20197;-81
2022/05/18 00:06:47;;;;;;;1.88;0.75;;;15.80;99.90;;;;;;5072801;28;20542;-79
2022/05/18 00:09:18;;;;;;;2.47;1.00;;;15.90;99.90;;;;;;5072236;28;20696;-82
2022/05/18 00:11:49;;;;;;;2.22;0.63;;;16.00;99.90;;;;;;5074738;28;20258;-78
2022/05/18 00:14:22;;;;;;;3.30;0.60;;;16.10;99.90;;;;;;5061879;28;20197;-79
2022/05/18 00:16:52;;;;;;;4.78;0.70;;;16.10;99.90;;;;;;5072992;28;20190;-80
2022/05/18 00:19:23;;;;;;;2.75;0.60;;;16.20;99.90;;;;;;5067621;28;20198;-79
2022/05/18 00:21:54;;;;;;;3.00;1.05;;;16.30;99.90;;;;;;5073245;28;20729;-80
2022/05/18 00:24:25;;;;;;;5.53;0.85;;;16.40;99.90;;;;;;5070536;28;20220;-81
2022/05/18 00:26:56;;;;;;;3.05;0.80;;;16.50;99.90;;;;;;5070635;28;20193;-81
2022/05/18 00:29:28;;;;;;;5.72;3.03;;;16.60;99.90;;;;;;5066961;28;20189;-79
2022/05/18 00:31:59;;;;;;;6.25;2.97;;;16.70;99.90;;;;;;5066201;28;20221;-77
2022/05/18 00:34:30;;;;;;;1.98;0.63;;;16.80;99.90;;;;;;5068963;28;20197;-77
2022/05/18 00:37:01;;;;;;;3.42;1.27;;;16.90;99.90;;;;;;5062097;28;20197;-79
2022/05/18 00:39:31;;;;;;;3.08;0.82;;;16.90;99.90;;;;;;5069677;28;20196;-83
2022/05/18 00:42:02;;;;;;;3.65;2.75;;;17.00;99.90;;;;;;5070013;28;20200;-81
2022/05/18 00:44:35;;;;;;;2.97;1.83;;;17.00;99.90;;;;;;5069083;28;20195;-81
2022/05/18 00:47:05;;;;;;;1.65;0.93;;;17.10;99.90;;;;;;5065664;28;20290;-85
2022/05/18 00:49:36;;;;;;;3.97;1.05;;;17.20;99.90;;;;;;5066672;28;20556;-77
2022/05/18 00:52:07;;;;;;;6.47;1.42;;;17.20;99.90;;;;;;5068185;28;20212;-77
2022/05/18 00:54:39;;;;;;;4.68;0.80;;;17.30;99.90;;;;;;5064461;28;20196;-78
2022/05/18 00:57:13;;;;;;;2.08;0.50;;;17.60;99.90;;;;;;5060218;28;20623;-79
2022/05/18 00:59:49;;;;;;;2.92;0.55;;;17.70;99.90;;;;;;5061988;28;20258;-78
2022/05/18 01:02:21;;;;;;;2.58;0.68;;;17.70;99.90;;;;;;5058461;28;20588;-80
2022/05/18 01:04:55;;;;;;;0.77;0.73;;;17.80;99.90;;;;;;5065028;28;20193;-80
2022/05/18 01:07:30;;;;;;;1.58;0.50;;;17.90;99.90;;;;;;5059720;28;20569;-78
2022/05/18 01:10:01;;;;;;;1.65;0.50;;;17.90;99.90;;;;;;5061062;28;20277;-79
2022/05/18 01:12:31;;;;;;;4.13;0.50;;;17.90;99.90;;;;;;5064691;28;20200;-77
2022/05/18 01:15:09;;;;;;;2.08;0.50;;;17.90;99.90;;;;;;5061042;28;20204;-81
2022/05/18 01:17:41;;;;;;;3.05;0.40;;;17.90;99.90;;;;;;5065836;28;20713;-78
2022/05/18 01:20:15;;;;;;;2.25;0.40;;;17.90;99.90;;;;;;5065901;28;20246;-77
2022/05/18 01:22:52;;;;;;;1.63;0.50;;;18.00;99.90;;;;;;5066947;28;20829;-79
2022/05/18 01:25:34;;;;;;;2.75;0.40;;;18.00;99.90;;;;;;5065059;28;20557;-80
2022/05/18 01:28:10;;;;;;;1.55;0.50;;;18.00;99.90;;;;;;5063435;28;20669;-81
2022/05/18 01:30:45;;;;;;;2.05;0.30;;;18.00;99.90;;;;;;5064346;28;20347;-80
2022/05/18 01:33:17;;;;;;;1.60;0.40;;;18.10;99.90;;;;;;5070144;28;20189;-76
2022/05/18 01:35:49;;;;;;;0.93;0.40;;;18.20;99.90;;;;;;5067582;28;20701;-81
2022/05/18 01:38:20;;;;;;;3.15;0.70;;;18.20;99.90;;;;;;5068332;28;20209;-80
2022/05/18 01:41:06;;;;;;;2.80;0.50;;;18.30;99.90;;;;;;5067918;28;20201;-78
2022/05/18 01:43:41;;;;;;;2.90;0.95;;;18.40;99.90;;;;;;5068074;28;20263;-77
2022/05/18 01:46:15;;;;;;;1.30;0.55;;;18.50;99.90;;;;;;5064958;28;20794;-81
2022/05/18 01:48:47;;;;;;;3.22;0.60;;;18.60;99.90;;;;;;5061541;28;20221;-76
2022/05/18 01:51:28;;;;;;;3.42;0.73;;;18.50;99.90;;;;;;5053575;28;20218;-79
2022/05/18 01:54:00;;;;;;;0.45;0.40;;;18.50;99.90;;;;;;5058705;28;20711;-77
2022/05/18 01:56:31;;;;;;;1.60;0.50;;;18.50;99.90;;;;;;5062907;28;20560;-79
2022/05/18 01:59:03;;;;;;;4.03;0.43;;;18.50;99.90;;;;;;5054705;28;20249;-80
2022/05/18 02:01:34;;;;;;;2.67;0.50;;;18.60;99.90;;;;;;5059044;28;20197;-80
2022/05/18 02:04:05;;;;;;;2.28;0.52;;;18.60;99.90;;;;;;5069441;28;20722;-80
2022/05/18 02:06:36;;;;;;;2.70;0.50;;;18.70;99.90;;;;;;5067191;28;20190;-78
2022/05/18 02:09:08;;;;;;;1.38;0.50;;;18.80;99.90;;;;;;5062166;28;20236;-80
2022/05/18 02:11:39;;;;;;;1.13;0.47;;;18.80;99.90;;;;;;5057688;28;20746;-79
2022/05/18 02:14:11;;;;;;;1.05;0.35;;;18.90;99.90;;;;;;5061795;28;20669;-79
2022/05/18 02:16:42;;;;;;;2.15;0.60;;;18.80;99.90;;;;;;5068666;28;20724;-80
2022/05/18 02:19:14;;;;;;;0.80;0.50;;;19.00;99.90;;;;;;5058146;28;20197;-83
2022/05/18 02:21:45;;;;;;;2.67;0.60;;;19.10;99.90;;;;;;5059005;28;20190;-82
2022/05/18 02:24:15;;;;;;;3.38;0.70;;;19.10;99.90;;;;;;5058011;28;20766;-81
2022/05/18 02:26:46;;;;;;;1.90;0.40;;;19.10;99.90;;;;;;5060078;28;20446;-81
2022/05/18 02:29:19;;;;;;;1.05;0.40;;;19.10;99.90;;;;;;5063859;28;20197;-78
2022/05/18 02:31:50;;;;;;;1.95;0.73;;;19.30;99.90;;;;;;5066240;28;20297;-79
2022/05/18 02:34:21;;;;;;;2.50;0.30;;;19.40;99.90;;;;;;5064649;28;20246;-80
2022/05/18 02:36:51;;;;;;;2.28;0.40;;;19.50;99.90;;;;;;5059833;28;20196;-79
2022/05/18 02:39:22;;;;;;;1.08;0.47;;;19.60;99.90;;;;;;5066480;28;20562;-79
2022/05/18 02:41:53;;;;;;;1.48;0.40;;;19.50;99.90;;;;;;5065770;28;20189;-79
2022/05/18 02:44:25;;;;;;;2.40;0.22;;;19.50;99.90;;;;;;5061573;28;20198;-78
2022/05/18 02:46:59;;;;;;;0.77;0.40;;;19.50;99.90;;;;;;5063673;28;20223;-78
2022/05/18 02:49:31;;;;;;;1.13;0.22;;;19.50;99.90;;;;;;5057496;28;20194;-78
2022/05/18 02:52:02;;;;;;;0.90;0.40;;;19.60;99.90;;;;;;5056748;28;20213;-78
2022/05/18 02:57:20;;;;;;;1.67;0.40;;;19.60;99.90;;;;;;5064532;28;20200;-79
2022/05/18 02:59:52;;;;;;;0.52;0.40;;;19.70;99.90;;;;;;5058658;28;20232;-77
2022/05/18 03:02:23;;;;;;;1.80;0.40;;;19.80;99.90;;;;;;5063746;28;20193;-77
2022/05/18 03:04:53;;;;;;;1.17;0.30;;;19.80;99.90;;;;;;5062545;28;20192;-78
2022/05/18 03:07:24;;;;;;;1.13;0.30;;;19.70;99.90;;;;;;5056925;28;20205;-78
2022/05/18 03:09:55;;;;;;;1.40;0.32;;;19.70;99.90;;;;;;5082237;28;20239;-78
2022/05/18 03:12:25;;;;;;;2.05;0.88;;;19.80;99.90;;;;;;5066294;28;20853;-79
2022/05/18 03:14:58;;;;;;;1.00;0.40;;;19.80;99.90;;;;;;5058724;28;20291;-77
2022/05/18 03:17:28;;;;;;;0.47;0.20;;;19.80;99.90;;;;;;5063300;28;20575;-79
2022/05/18 03:19:59;;;;;;;0.43;0.25;;;19.80;99.90;;;;;;5066692;28;20200;-80
2022/05/18 03:25:18;;;;;;;0.77;0.28;;;19.90;99.90;;;;;;5071986;28;20311;-78
2022/05/18 03:27:49;;;;;;;1.10;0.30;;;19.80;99.90;;;;;;5079540;28;20235;-78
2022/05/18 03:30:23;;;;;;;0.68;0.20;;;19.80;99.90;;;;;;5064610;28;20193;-77
2022/05/18 03:32:53;;;;;;;0.85;0.30;;;19.70;99.90;;;;;;5055970;28;20209;-77
2022/05/18 03:35:24;;;;;;;0.47;0.47;;;19.70;99.90;;;;;;5065467;28;20254;-77
2022/05/18 03:37:54;;;;;;;1.95;0.32;;;19.70;99.90;;;;;;5066232;28;20197;-78
2022/05/18 03:40:25;;;;;;;0.30;0.30;;;19.70;99.90;;;;;;5066321;28;20198;-77
2022/05/18 03:42:56;;;;;;;0.60;0.20;;;19.70;99.90;;;;;;5061635;28;20216;-78
2022/05/18 03:45:29;;;;;;;1.95;0.30;;;19.60;99.90;;;;;;5060942;28;20190;-77
2022/05/18 03:47:59;;;;;;;1.38;0.35;;;19.70;99.90;;;;;;5066715;28;20585;-77
2022/05/18 03:50:30;;;;;;;2.20;0.40;;;19.80;99.90;;;;;;5064514;28;20714;-79
2022/05/18 03:53:01;;;;;;;0.70;0.20;;;19.70;99.90;;;;;;5063249;28;20209;-78
2022/05/18 03:55:32;;;;;;;3.50;0.73;;;19.80;99.90;;;;;;5064240;28;20209;-76
2022/05/18 03:58:03;;;;;;;2.08;0.60;;;19.70;99.90;;;;;;5059617;28;20196;-76
2022/05/18 04:00:36;;;;;;;1.77;0.57;;;19.60;99.90;;;;;;5059608;28;20224;-77
2022/05/18 04:03:07;;;;;;;0.82;0.40;;;19.60;99.90;;;;;;5067281;28;20189;-77
2022/05/18 04:05:38;;;;;;;2.38;0.30;;;19.60;99.90;;;;;;5058576;28;20236;-77
2022/05/18 04:08:10;;;;;;;0.82;0.30;;;19.70;99.90;;;;;;5059627;28;20277;-77
2022/05/18 04:10:42;;;;;;;0.32;0.30;;;19.80;99.90;;;;;;5063014;28;20185;-77
2022/05/18 04:13:16;;;;;;;0.82;0.30;;;19.80;99.90;;;;;;5055433;28;20221;-77
2022/05/18 04:15:49;;;;;;;0.93;0.32;;;19.80;99.90;;;;;;5056697;28;20194;-77
2022/05/18 04:18:20;;;;;;;1.25;0.30;;;19.80;99.90;;;;;;5061028;28;20186;-77
2022/05/18 04:20:51;;;;;;;1.08;0.30;;;19.90;99.90;;;;;;5056774;28;20251;-78
2022/05/18 04:23:23;;;;;;;1.48;0.38;;;19.80;99.90;;;;;;5069105;28;20197;-77
2022/05/18 04:25:53;;;;;;;1.05;0.30;;;19.80;99.90;;;;;;5055120;28;20189;-78
2022/05/18 04:28:24;;;;;;;1.80;0.50;;;19.80;99.90;;;;;;5055554;28;20235;-76
2022/05/18 04:30:56;;;;;;;1.35;0.50;;;19.90;99.90;;;;;;5063418;28;20227;-78
2022/05/18 04:33:27;;;;;;;1.45;0.30;;;20.00;99.90;;;;;;5063131;28;20271;-78
2022/05/18 04:36:02;;;;;;;1.58;0.40;;;20.00;99.90;;;;;;5061652;28;20250;-77
2022/05/18 04:38:33;;;;;;;1.65;0.40;;;20.00;99.90;;;;;;5059944;28;20259;-77
2022/05/18 04:41:04;;;;;;;1.30;0.30;;;20.00;99.90;;;;;;5070731;28;21810;-78
2022/05/18 04:43:34;;;;;;;1.30;0.40;;;19.90;99.90;;;;;;5055032;28;20194;-77
2022/05/18 04:46:08;;;;;;;1.33;0.32;;;19.80;99.90;;;;;;5052194;28;20201;-78
2022/05/18 04:48:40;;;;;;;0.68;0.30;;;19.80;99.90;;;;;;5071291;28;20235;-79
2022/05/18 04:51:11;;;;;;;3.40;0.68;;;19.90;99.90;;;;;;5068036;28;21164;-77
2022/05/18 04:53:42;;;;;;;1.38;0.32;;;19.90;99.90;;;;;;5074412;28;20609;-77
2022/05/18 04:56:12;;;;;;;4.05;0.30;;;19.80;99.90;;;;;;5057697;28;20196;-80
2022/05/18 04:58:43;;;;;;;1.60;0.32;;;19.80;99.90;;;;;;5062613;28;20197;-78
2022/05/18 05:01:16;;;;;;;1.58;0.40;;;19.70;99.90;;;;;;5054808;28;20201;-77
2022/05/18 05:03:46;;;;;;;1.20;0.40;;;19.60;99.90;;;;;;5065066;28;20304;-78
2022/05/18 05:06:17;;;;;;;2.17;0.40;;;19.50;99.90;;;;;;5056242;28;20201;-77
2022/05/18 05:08:48;;;;;;;3.72;0.73;;;19.40;99.90;;;;;;5059913;28;20241;-77
2022/05/18 05:11:18;;;;;;;3.17;0.80;;;19.20;99.90;;;;;;5054248;28;20236;-78
2022/05/18 05:13:49;;;;;;;1.85;0.30;;;19.10;99.90;;;;;;5063488;28;20239;-77
2022/05/18 05:16:21;;;;;;;1.15;0.40;;;19.10;99.90;;;;;;5065361;28;20198;-78
2022/05/18 05:18:52;;;;;;;1.77;0.40;;;19.10;99.90;;;;;;5068732;28;20197;-77
2022/05/18 05:21:23;;;;;;;1.25;0.28;;;19.10;99.90;;;;;;5067199;28;20182;-78
2022/05/18 05:23:53;;;;;;;0.90;0.47;;;19.00;99.90;;;;;;5069117;28;20238;-77
2022/05/18 05:26:24;;;;;;;0.68;0.30;;;19.00;99.90;;;;;;5068059;28;20606;-76
2022/05/18 05:28:54;;;;;;;2.40;0.40;;;19.00;99.90;;;;;;5065497;28;20594;-77
2022/05/18 05:31:27;;;;;;;2.63;0.40;;;19.00;99.90;;;;;;5069512;28;20244;-77
2022/05/18 05:33:58;;;;;;;3.30;0.50;;;19.10;99.90;;;;;;5062330;28;20255;-78
2022/05/18 05:36:29;;;;;;;2.47;0.55;;;19.20;99.90;;;;;;5063377;28;20197;-77
2022/05/18 05:39:00;;;;;;;2.08;0.38;;;19.20;99.90;;;;;;5058481;28;20731;-77
2022/05/18 05:41:31;;;;;;;1.38;0.40;;;19.20;99.90;;;;;;5056694;28;20193;-77
2022/05/18 05:44:01;;;;;;;0.60;0.40;;;19.10;99.90;;;;;;5060699;28;20196;-75
2022/05/18 05:46:34;;;;;;;0.57;0.30;;;19.20;99.90;;;;;;5056237;28;20196;-77
2022/05/18 05:49:04;;;;;;;1.45;0.38;;;19.10;99.90;;;;;;5066763;28;20197;-78
2022/05/18 05:51:35;;;;;;;0.80;0.40;;;19.10;99.90;;;;;;5065258;28;20212;-78
2022/05/18 05:54:07;;;;;;;1.20;0.38;;;19.10;99.90;;;;;;5060411;28;20193;-78
2022/05/18 05:56:38;;;;;;;1.25;0.30;;;19.10;99.90;;;;;;5066184;28;20206;-78
2022/05/18 05:59:08;;;;;;;1.35;0.47;;;19.10;99.90;;;;;;5065445;28;20657;-78
2022/05/18 06:01:41;;;;;;;2.65;0.43;;;19.00;99.90;;;;;;5063965;28;20189;-78
2022/05/18 06:04:11;;;;;;;0.50;0.45;;;19.00;99.90;;;;;;5064402;28;20200;-79
2022/05/18 06:06:42;;;;;;;1.25;0.32;;;19.00;99.90;;;;;;5066359;28;20197;-76
2022/05/18 06:09:13;;;;;;;0.60;0.35;;;19.00;99.90;;;;;;5066994;28;20225;-79
2022/05/18 06:11:43;;;;;;;1.95;0.40;;;18.90;99.90;;;;;;5066603;28;20254;-75
2022/05/18 06:14:14;;;;;;;1.27;0.40;;;18.90;99.90;;;;;;5065043;28;20652;-76
2022/05/18 06:16:46;;;;;;;0.60;0.30;;;18.90;99.90;;;;;;5064786;28;20676;-77
2022/05/18 06:19:17;;;;;;;2.00;0.40;;;18.80;99.90;;;;;;5065323;28;20284;-76
2022/05/18 06:21:50;;;;;;;1.63;0.40;;;18.80;99.90;;;;;;5062390;28;20254;-76
2022/05/18 06:24:21;;;;;;;1.35;0.40;;;18.70;99.90;;;;;;5067130;28;20181;-75
2022/05/18 06:26:51;;;;;;;2.58;0.40;;;18.60;99.90;;;;;;5067316;28;20569;-76
2022/05/18 06:29:22;;;;;;;0.60;0.40;;;18.40;99.90;;;;;;5066686;28;20196;-77
2022/05/18 06:31:54;;;;;;;0.52;0.30;;;18.40;99.90;;;;;;5062556;28;20233;-76
2022/05/18 06:34:25;;;;;;;1.60;0.40;;;18.30;99.90;;;;;;5067248;28;20652;-77
2022/05/18 06:36:56;;;;;;;1.80;0.35;;;18.30;99.90;;;;;;5064484;28;20691;-77
2022/05/18 06:39:26;;;;;;;0.77;0.30;;;18.30;99.90;;;;;;5066338;28;20193;-77
2022/05/18 06:42:00;;;;;;;0.90;0.32;;;18.20;99.90;;;;;;5066580;28;20608;-78
2022/05/18 06:44:32;;;;;;;0.73;0.50;;;18.10;99.90;;;;;;5064858;28;20201;-77
2022/05/18 06:47:06;;;;;;;0.95;0.38;;;18.10;99.90;;;;;;5059521;28;20239;-77
2022/05/18 06:49:36;;;;;;;0.77;0.35;;;18.10;99.90;;;;;;5059777;28;20207;-76
2022/05/18 06:52:09;;;;;;;2.30;0.50;;;18.00;99.90;;;;;;5060946;28;20229;-77
2022/05/18 06:54:40;;;;;;;0.88;0.40;;;17.90;99.90;;;;;;5065821;28;20715;-77
2022/05/18 06:57:10;;;;;;;0.70;0.50;;;17.90;99.90;;;;;;5057755;28;20201;-77
2022/05/18 06:59:41;;;;;;;0.85;0.50;;;17.90;99.90;;;;;;5062546;28;20204;-77
2022/05/18 07:02:14;;;;;;;1.50;0.70;;;17.80;99.90;;;;;;5070278;28;20615;-77
2022/05/18 07:04:44;;;;;;;3.55;0.65;;;17.80;99.90;;;;;;5056912;28;20205;-77
2022/05/18 07:07:15;;;;;;;0.77;0.60;;;17.70;99.90;;;;;;5064780;28;20336;-76
2022/05/18 07:09:46;;;;;;;3.00;0.60;;;17.70;99.90;;;;;;5061776;28;20773;-78
2022/05/18 07:12:16;;;;;;;2.42;0.68;;;17.60;99.90;;;;;;5056376;28;20270;-78
2022/05/18 07:14:47;;;;;;;1.38;0.60;;;17.60;99.90;;;;;;5061918;28;20220;-77
2022/05/18 07:17:20;;;;;;;0.50;0.40;;;17.50;99.90;;;;;;5064043;28;20193;-78
2022/05/18 07:19:50;;;;;;;1.23;0.50;;;17.50;99.90;;;;;;5064358;28;20205;-78
2022/05/18 07:22:21;;;;;;;2.75;0.50;;;17.50;99.90;;;;;;5056645;28;20205;-78
2022/05/18 07:24:51;;;;;;;1.95;0.63;;;17.40;99.90;;;;;;5054856;28;20193;-77
2022/05/18 07:27:22;;;;;;;1.35;0.50;;;17.40;99.90;;;;;;5063862;28;20276;-78
2022/05/18 07:29:53;;;;;;;1.30;0.60;;;17.30;99.90;;;;;;5063173;28;20239;-79
2022/05/18 07:32:25;;;;;;;1.25;0.60;;;17.30;99.90;;;;;;5068039;28;20213;-77
2022/05/18 07:34:56;;;;;;;0.68;0.50;;;17.20;99.90;;;;;;5063763;28;20254;-78
2022/05/18 07:37:26;;;;;;;2.15;0.50;;;17.30;99.90;;;;;;5063162;28;20653;-78
2022/05/18 07:39:57;;;;;;;2.40;0.70;;;17.20;99.90;;;;;;5056780;28;20199;-79
2022/05/18 07:42:28;;;;;;;3.45;0.80;;;17.20;99.90;;;;;;5058615;28;20212;-79
2022/05/18 07:44:58;;;;;;;1.45;0.60;;;17.10;99.90;;;;;;5060111;28;20207;-78
2022/05/18 07:47:35;;;;;;;2.13;0.70;;;17.00;99.90;;;;;;5070621;28;20217;-79
2022/05/18 07:50:06;;;;;;;3.28;0.80;;;17.00;99.90;;;;;;5060707;28;20657;-78
2022/05/18 07:52:37;;;;;;;2.60;0.80;;;17.00;99.90;;;;;;5064956;28;20216;-79
2022/05/18 07:55:09;;;;;;;1.83;0.80;;;16.90;99.90;;;;;;5069158;28;20192;-78
2022/05/18 07:57:39;;;;;;;1.17;0.80;;;16.90;99.90;;;;;;5070005;28;20197;-78
2022/05/18 08:00:11;;;;;;;1.65;0.70;;;16.90;99.90;;;;;;5064557;28;20251;-79
2022/05/18 08:02:44;;;;;;;2.40;1.00;;;16.80;99.90;;;;;;5065354;28;20616;-78
2022/05/18 08:05:15;;;;;;;1.27;0.90;;;16.80;99.90;;;;;;5059579;28;20201;-80
2022/05/18 08:07:47;;;;;;;1.75;0.65;;;16.70;99.90;;;;;;5066804;28;20239;-78
2022/05/18 08:15:53;;;;;;;2.35;0.80;;;16.60;99.90;;;;;;5042961;28;20254;-79
2022/05/18 08:18:25;;;;;;;2.58;0.80;;;16.60;99.90;;;;;;5041978;28;20746;-78
2022/05/18 08:20:56;;;;;;;3.58;1.30;;;16.50;99.90;;;;;;5037376;28;20248;-79
2022/05/18 08:23:27;;;;;;;4.38;1.45;;;16.40;99.90;;;;;;5047401;28;20201;-79
2022/05/18 08:25:58;;;;;;;3.10;1.30;;;16.40;99.90;;;;;;5044727;28;20276;-79
2022/05/18 08:28:29;;;;;;;2.30;1.20;;;16.40;99.90;;;;;;5052648;28;20197;-80
2022/05/18 08:30:59;;;;;;;2.05;1.20;;;16.30;99.90;;;;;;5049043;28;20210;-79
2022/05/18 08:33:33;;;;;;;2.53;1.35;;;16.40;99.90;;;;;;5050771;28;20214;-78
2022/05/18 08:36:04;;;;;;;3.05;1.50;;;16.40;99.90;;;;;;5048333;28;20280;-78
2022/05/18 08:38:35;;;;;;;2.10;1.10;;;16.40;99.90;;;;;;5045883;28;20186;-78
2022/05/18 08:41:13;;;;;;;2.22;1.23;;;16.40;99.90;;;;;;5037876;28;20209;-79
2022/05/18 08:43:48;;;;;;;1.83;1.20;;;16.40;99.90;;;;;;5048444;28;20622;-79
2022/05/18 08:46:28;;;;;;;3.15;1.30;;;16.40;99.90;;;;;;5047940;28;20306;-79
2022/05/18 08:49:06;;;;;;;4.32;1.50;;;16.40;99.90;;;;;;5048975;28;20190;-79
2022/05/18 08:51:48;;;;;;;2.53;1.20;;;16.40;99.90;;;;;;5041109;28;20704;-79
2022/05/18 08:54:38;;;;;;;2.88;1.27;;;16.30;99.90;;;;;;5045335;28;20231;-78
2022/05/18 08:57:22;;;;;;;4.72;1.60;;;16.30;99.90;;;;;;5042303;28;20194;-80
2022/05/18 08:59:58;;;;;;;4.18;1.73;;;16.30;99.90;;;;;;5047470;28;20255;-81
2022/05/18 09:02:32;;;;;;;3.97;1.90;;;16.30;99.90;;;;;;5045608;28;20204;-80
2022/05/18 09:05:07;;;;;;;3.92;1.90;;;16.30;99.90;;;;;;5048826;28;20194;-80
2022/05/18 09:07:42;;;;;;;3.63;1.65;;;16.20;99.90;;;;;;5040776;28;20589;-79
2022/05/18 09:10:25;;;;;;;4.55;1.88;;;16.30;99.90;;;;;;5064532;28;20293;-79
2022/05/18 09:12:55;;;;;;;5.47;2.10;;;16.30;99.90;;;;;;5067407;28;20613;-78
2022/05/18 09:15:35;;;;;;;3.90;2.40;;;16.40;99.90;;;;;;5067320;28;20255;-81
2022/05/18 09:18:15;;;;;;;4.90;1.50;;;16.40;99.90;;;;;;5068180;28;20185;-79
2022/05/18 09:20:51;;;;;;;7.63;1.50;;;16.40;99.90;;;;;;5068738;28;20205;-78
2022/05/18 09:23:45;;;;;;;2.47;1.60;;;16.40;99.90;;;;;;5063686;28;20211;-77
2022/05/18 09:26:32;;;;;;;4.88;1.40;;;16.40;99.90;;;;;;5062021;28;20296;-79
2022/05/18 09:29:12;;;;;;;2.60;1.20;;;16.30;99.90;;;;;;5070541;28;20201;-78
2022/05/18 09:31:53;;;;;;;2.28;1.00;;;16.40;99.90;;;;;;5070495;28;20292;-79
2022/05/18 09:34:43;;;;;;;2.85;0.80;;;16.40;99.90;;;;;;5071551;28;20231;-78
2022/05/18 09:37:28;;;;;;;1.05;0.80;;;16.40;99.90;;;;;;5067932;28;20200;-81
2022/05/18 09:40:04;;;;;;;1.73;0.60;;;16.40;99.90;;;;;;5072215;28;20276;-76
2022/05/18 09:42:39;;;;;;;1.27;0.60;;;16.30;99.90;;;;;;5067389;28;20192;-77
2022/05/18 09:45:14;;;;;;;0.80;0.60;;;16.30;99.90;;;;;;5068375;28;20243;-77
2022/05/18 09:47:48;;;;;;;1.08;0.80;;;16.30;99.90;;;;;;5065854;28;20220;-78
2022/05/18 09:50:19;;;;;;;1.98;0.60;;;16.30;99.90;;;;;;5069014;28;20250;-78
2022/05/18 09:52:52;;;;;;;1.20;0.60;;;16.20;99.90;;;;;;5067015;28;20648;-78
2022/05/18 09:55:25;;;;;;;2.90;0.60;;;16.20;99.90;;;;;;5068045;28;20189;-78
2022/05/18 09:58:02;;;;;;;0.60;0.40;;;16.20;99.90;;;;;;5067313;28;20242;-78
2022/05/18 10:00:35;;;;;;;0.75;0.50;;;16.20;99.90;;;;;;5064705;28;20197;-77
2022/05/18 10:08:56;;;;;;;0.77;0.30;;;16.10;99.90;;;;;;5068397;28;20247;-77
2022/05/18 10:11:32;;;;;;;0.63;0.50;;;16.10;99.90;;;;;;5068377;28;20218;-77
2022/05/18 10:14:12;;;;;;;1.35;0.60;;;16.10;99.90;;;;;;5068360;28;20273;-78
2022/05/18 10:16:44;;;;;;;1.70;0.40;;;16.00;99.90;;;;;;5066084;28;20196;-77
2022/05/18 10:19:23;;;;;;;0.70;0.52;;;16.00;99.90;;;;;;5069882;28;20189;-77
2022/05/18 10:21:58;;;;;;;0.50;0.40;;;15.90;99.90;;;;;;5069916;28;20189;-78
2022/05/18 10:24:37;;;;;;;0.50;0.50;;;15.90;99.90;;;;;;5068546;28;20287;-77
2022/05/18 10:27:26;;;;;;;0.60;0.60;;;15.80;99.90;;;;;;5066924;28;20593;-77
2022/05/18 10:30:09;;;;;;;1.20;0.55;;;15.70;99.90;;;;;;5068982;28;20250;-77
2022/05/18 10:32:53;;;;;;;1.65;0.40;;;15.70;99.90;;;;;;5069123;28;20196;-78
2022/05/18 10:35:48;;;;;;;1.70;0.40;;;15.70;99.90;;;;;;5070980;28;20652;-78
2022/05/18 10:38:26;;;;;;;0.70;0.70;;;15.70;99.90;;;;;;5069044;28;20192;-80
2022/05/18 10:41:14;;;;;;;0.40;0.30;;;15.60;99.90;;;;;;5070859;28;20234;-78
2022/05/18 10:43:47;;;;;;;1.08;0.50;;;15.60;99.90;;;;;;5068909;28;20607;-80
2022/05/18 10:46:21;;;;;;;0.93;0.50;;;15.60;99.90;;;;;;5062880;28;20189;-78
2022/05/18 10:48:58;;;;;;;0.70;0.40;;;15.50;99.90;;;;;;5068806;28;20205;-78
2022/05/18 10:51:35;;;;;;;1.98;0.52;;;15.50;99.90;;;;;;5063734;28;20589;-76
2022/05/18 10:54:19;;;;;;;1.13;0.50;;;15.50;99.90;;;;;;5066226;28;20299;-78
2022/05/18 10:56:52;;;;;;;1.33;0.40;;;15.50;99.90;;;;;;5068971;28;20181;-78
2022/05/18 10:59:47;;;;;;;0.52;0.50;;;15.50;99.90;;;;;;5069862;28;20208;-78
2022/05/18 11:02:29;;;;;;;1.60;0.63;;;15.40;99.90;;;;;;5068241;28;20196;-79
2022/05/18 11:05:04;;;;;;;1.05;0.50;;;15.40;99.90;;;;;;5067095;28;20614;-79
2022/05/18 11:07:35;;;;;;;1.40;0.43;;;15.30;99.90;;;;;;5059175;28;20197;-79
2022/05/18 11:10:06;;;;;;;0.70;0.40;;;15.30;99.90;;;;;;5066596;28;20633;-78
2022/05/18 11:12:47;;;;;;;1.73;0.60;;;15.30;99.90;;;;;;5066225;28;20205;-79
2022/05/18 11:15:26;;;;;;;1.23;0.50;;;15.20;99.90;;;;;;5066588;28;20226;-80
2022/05/18 11:18:08;;;;;;;6.53;5.13;;;15.20;99.90;;;;;;5064658;28;20255;-79
2022/05/18 11:20:53;;;;;;;12.05;9.82;;;15.10;99.90;;;;;;5067805;28;20185;-80
2022/05/18 11:23:34;;;;;;;4.20;1.75;;;15.10;99.90;;;;;;5071755;28;20190;-80
2022/05/18 11:26:16;;;;;;;1.85;1.35;;;15.10;99.90;;;;;;5069978;28;20242;-77
2022/05/18 11:28:58;;;;;;;2.72;1.30;;;15.00;99.90;;;;;;5072190;28;20876;-78
2022/05/18 11:32:02;;;;;;;1.00;0.70;;;15.00;99.90;;;;;;5071189;28;20181;-78
2022/05/18 11:34:42;;;;;;;1.70;0.80;;;15.00;99.90;;;;;;5032323;28;20220;-78
2022/05/18 11:37:29;;;;;;;2.22;0.95;;;14.90;99.90;;;;;;5068233;28;20725;-78
2022/05/18 11:40:09;;;;;;;1.67;0.85;;;14.90;99.90;;;;;;5071747;28;20189;-79
2022/05/18 11:42:49;;;;;;;1.40;0.73;;;14.90;99.90;;;;;;5071865;28;20240;-78
2022/05/18 11:45:32;;;;;;;2.25;0.88;;;14.80;99.90;;;;;;5069449;28;20250;-79
2022/05/18 11:48:15;;;;;;;1.75;0.93;;;14.80;99.90;;;;;;5072876;28;20753;-79
2022/05/18 11:51:02;;;;;;;1.48;0.70;;;14.80;99.90;;;;;;5073057;28;20239;-78
2022/05/18 11:53:54;;;;;;;2.80;0.80;;;14.70;99.90;;;;;;5072190;28;20203;-78
2022/05/18 11:56:38;;;;;;;2.53;0.80;;;14.70;99.90;;;;;;5071594;28;20204;-78
2022/05/18 11:59:34;;;;;;;0.77;0.63;;;14.60;99.90;;;;;;5069883;28;20284;-78
2022/05/18 12:02:36;;;;;;;0.90;0.60;;;14.60;99.90;;;;;;5068393;28;20197;-78
2022/05/18 12:05:50;;;;;;;0.57;0.50;;;14.50;99.90;;;;;;5066987;28;20231;-79
2022/05/18 12:09:09;;;;;;;1.05;0.50;;;14.50;99.90;;;;;;4976669;28;20227;-78
2022/05/18 12:11:51;;;;;;;0.77;0.50;;;14.50;99.90;;;;;;5029652;28;20270;-78
2022/05/18 12:14:30;;;;;;;0.70;0.60;;;14.40;99.90;;;;;;5069364;28;20696;-80
2022/05/18 12:17:07;;;;;;;147.63;99.90;;;14.40;99.90;;;;;;5060819;28;20247;-80
2022/05/18 12:19:49;;;;;;;22.23;16.75;;;14.40;99.90;;;;;;5061778;28;20189;-79
2022/05/18 12:22:26;;;;;;;6.47;3.92;;;14.40;99.90;;;;;;5064441;28;20194;-78
2022/05/18 12:24:57;;;;;;;2.70;1.77;;;14.40;99.90;;;;;;5067221;28;20300;-78
2022/05/18 12:27:29;;;;;;;1.55;1.05;;;14.30;99.90;;;;;;5062111;28;20707;-79
2022/05/18 12:30:05;;;;;;;2.92;1.05;;;14.30;99.90;;;;;;5056853;28;20243;-78
2022/05/18 12:32:36;;;;;;;3.35;1.20;;;14.20;99.90;;;;;;5060016;28;20197;-79
2022/05/18 12:35:17;;;;;;;2.83;1.15;;;14.20;99.90;;;;;;5058630;28;20221;-79
2022/05/18 12:38:04;;;;;;;2.60;0.93;;;14.10;99.90;;;;;;5057187;28;20209;-78
2022/05/18 12:40:51;;;;;;;2.47;0.90;;;14.10;99.90;;;;;;5060536;28;20292;-78
2022/05/18 12:43:33;;;;;;;1.77;0.90;;;14.10;99.90;;;;;;5058695;28;20197;-78
2022/05/18 12:46:08;;;;;;;2.20;0.90;;;14.10;99.90;;;;;;5058376;28;20216;-78
2022/05/18 12:48:41;;;;;;;2.38;0.90;;;14.10;99.90;;;;;;5055272;28;20190;-77
2022/05/18 12:51:17;;;;;;;2.42;0.70;;;14.00;99.90;;;;;;5064388;28;20241;-78
2022/05/18 12:54:00;;;;;;;1.40;0.80;;;14.00;99.90;;;;;;5068583;28;20722;-78
2022/05/18 12:56:52;;;;;;;2.10;0.90;;;14.00;99.90;;;;;;5057504;28;20251;-79
2022/05/18 12:59:25;;;;;;;0.98;0.75;;;14.00;99.90;;;;;;5059801;28;20197;-80
2022/05/18 13:02:04;;;;;;;2.72;0.95;;;14.00;99.90;;;;;;5060768;28;20677;-80
2022/05/18 13:04:44;;;;;;;2.88;1.17;;;13.90;99.90;;;;;;5062421;28;20648;-79
2022/05/18 13:07:28;;;;;;;3.58;0.98;;;13.90;99.90;;;;;;5064736;28;20204;-78
2022/05/18 13:10:08;;;;;;;3.60;1.40;;;13.90;99.90;;;;;;5067563;28;20323;-80
2022/05/18 13:12:57;;;;;;;2.63;0.90;;;13.90;99.90;;;;;;5071833;28;20322;-79
2022/05/18 13:15:54;;;;;;;2.85;0.88;;;13.90;99.90;;;;;;5059309;28;20209;-79
2022/05/18 13:18:33;;;;;;;1.52;0.80;;;13.80;99.90;;;;;;5062054;28;20259;-78
2022/05/18 13:21:18;;;;;;;1.45;0.93;;;13.80;99.90;;;;;;5060816;28;20563;-79
2022/05/18 13:24:04;;;;;;;2.22;0.70;;;13.80;99.90;;;;;;5060823;28;20201;-79
2022/05/18 13:26:39;;;;;;;3.55;0.73;;;13.70;99.90;;;;;;5057383;28;20201;-79
2022/05/18 13:29:13;;;;;;;1.45;0.65;;;13.70;99.90;;;;;;5055159;28;20190;-79
2022/05/18 13:31:47;;;;;;;1.75;0.70;;;13.70;99.90;;;;;;5058322;28;20292;-79
2022/05/18 13:34:20;;;;;;;3.15;0.60;;;13.70;99.90;;;;;;5064308;28;20278;-79
2022/05/18 13:36:56;;;;;;;0.75;0.57;;;13.70;99.90;;;;;;5056361;28;20201;-79
2022/05/18 13:39:33;;;;;;;1.27;0.63;;;13.60;99.90;;;;;;5053841;28;20193;-79
2022/05/18 13:42:09;;;;;;;2.25;0.70;;;13.60;99.90;;;;;;5062263;28;20251;-80